KCKM/CKM METAR and TAF weather

Enter ICAO airport designator
Station Type Date Time Source
KCKM METAR 2020/06/02 18:15 UTC NOAA

KCKM 021815Z AUTO 00000KT 10SM 30/17 A3010 RMK A01


Station Type Date Time Source
KCKM Decoded METAR 2020/06/02 18:15 UTC NOAA

Station name not available
Jun 02, 2020 - 02:15 PM EDT / 2020.06.02 1815 UTC
Wind: Calm:0
Visibility: 10 mile(s):0
Temperature: 86 F (30 C)
Dew Point: 62 F (17 C)
Relative Humidity: 45%
Pressure (altimeter): 30.1 in. Hg (1019 hPa)
ob: KCKM 021815Z AUTO 00000KT 10SM 30/17 A3010 RMK A01
cycle: 18

Station Type Date Time Source
KCKM TAF UTC NOAA

Error!

Example: see airport list